createdAt,value
2022-11-12T00:03:15.900Z,13.63
2022-11-12T00:06:37.365Z,13.45
2022-11-12T00:09:58.193Z,13.50
2022-11-12T00:13:18.887Z,14.93
2022-11-12T00:16:39.287Z,14.15
2022-11-12T00:19:59.983Z,12.77
2022-11-12T00:23:22.287Z,14.32
2022-11-12T00:26:45.197Z,13.65
2022-11-12T00:30:11.830Z,12.88
2022-11-12T00:33:38.836Z,13.18
2022-11-12T00:37:00.627Z,14.55
2022-11-12T00:40:22.045Z,12.55
2022-11-12T00:43:42.900Z,14.02
2022-11-12T00:47:04.616Z,13.70
2022-11-12T00:50:26.355Z,15.57
2022-11-12T00:53:55.856Z,14.50
2022-11-12T00:57:16.604Z,15.18
2022-11-12T01:00:38.207Z,13.32
2022-11-12T01:04:00.262Z,12.27
2022-11-12T01:07:21.114Z,12.90
2022-11-12T01:10:41.912Z,12.25
2022-11-12T01:14:06.397Z,11.60
2022-11-12T01:17:28.753Z,12.05
2022-11-12T01:20:50.093Z,12.52
2022-11-12T01:24:10.642Z,14.38
2022-11-12T01:27:38.591Z,11.07
2022-11-12T01:31:21.012Z,12.52
2022-11-12T01:34:42.639Z,11.52
2022-11-12T01:38:03.789Z,10.48
2022-11-12T01:41:31.262Z,10.60
2022-11-12T01:44:53.206Z,10.40
2022-11-12T01:48:27.144Z,13.55
2022-11-12T01:51:52.128Z,12.75
2022-11-12T01:55:20.428Z,13.80
2022-11-12T01:58:42.939Z,12.88
2022-11-12T02:02:05.136Z,14.23
2022-11-12T02:05:30.243Z,12.30
2022-11-12T02:08:52.210Z,12.02
2022-11-12T02:12:32.921Z,12.43
2022-11-12T02:15:53.644Z,12.23
2022-11-12T02:19:17.077Z,12.20
2022-11-12T02:22:40.850Z,12.93
2022-11-12T02:26:02.185Z,11.25
2022-11-12T02:29:23.244Z,12.27
2022-11-12T02:32:44.070Z,11.07
2022-11-12T02:36:05.641Z,11.60
2022-11-12T02:39:29.618Z,11.82
2022-11-12T02:42:50.473Z,10.82
2022-11-12T02:46:13.656Z,11.68
2022-11-12T02:49:35.332Z,12.40
2022-11-12T02:52:57.521Z,11.32
2022-11-12T02:56:17.698Z,10.43
2022-11-12T02:59:41.432Z,10.00
2022-11-12T03:03:02.776Z,11.63
2022-11-12T03:06:23.590Z,10.43
2022-11-12T03:09:45.265Z,10.55
2022-11-12T03:13:06.752Z,9.98
2022-11-12T03:16:27.524Z,10.98
2022-11-12T03:19:48.466Z,11.48
2022-11-12T03:23:11.992Z,11.60
2022-11-12T03:26:36.074Z,11.05
2022-11-12T03:29:57.109Z,10.65
2022-11-12T03:33:19.442Z,10.85
2022-11-12T03:36:40.480Z,10.90
2022-11-12T03:40:00.942Z,10.38
2022-11-12T03:43:21.716Z,11.40
2022-11-12T03:46:44.324Z,10.93
2022-11-12T03:50:06.795Z,12.35
2022-11-12T03:53:27.516Z,11.45
2022-11-12T03:56:48.397Z,12.02
2022-11-12T04:00:11.213Z,10.93
2022-11-12T04:03:32.345Z,12.38
2022-11-12T04:07:12.552Z,11.23
2022-11-12T04:10:33.503Z,9.93
2022-11-12T04:13:54.638Z,11.73
2022-11-12T04:17:36.207Z,10.18
2022-11-12T04:21:16.860Z,11.48
2022-11-12T04:24:58.836Z,11.27
2022-11-12T04:28:20.955Z,10.13
2022-11-12T04:31:41.972Z,10.32
2022-11-12T04:35:04.773Z,10.80
2022-11-12T04:38:25.921Z,10.98
2022-11-12T04:42:05.729Z,10.15
2022-11-12T04:45:26.308Z,9.32
2022-11-12T04:48:46.834Z,10.40
2022-11-12T04:52:07.653Z,10.07
2022-11-12T04:55:28.870Z,11.10
2022-11-12T04:58:51.661Z,11.02
2022-11-12T05:02:12.489Z,12.15
2022-11-12T05:05:34.240Z,10.48
2022-11-12T05:08:55.845Z,10.38
2022-11-12T05:12:16.460Z,9.23
2022-11-12T05:15:37.018Z,9.82
2022-11-12T05:18:57.490Z,9.45
2022-11-12T05:22:42.157Z,10.55
2022-11-12T05:26:01.137Z,10.82
2022-11-12T05:29:24.444Z,9.85
2022-11-12T05:32:45.118Z,8.18
2022-11-12T05:36:06.545Z,9.95
2022-11-12T05:39:27.490Z,8.90
2022-11-12T05:42:49.581Z,9.50
2022-11-12T05:46:10.280Z,10.93
2022-11-12T05:49:30.911Z,10.82
2022-11-12T05:52:52.534Z,10.80
2022-11-12T05:56:15.359Z,10.50
2022-11-12T05:59:35.995Z,9.95
2022-11-12T06:02:59.886Z,10.05
2022-11-12T06:06:20.511Z,11.10
2022-11-12T06:09:41.494Z,11.95
2022-11-12T06:13:01.977Z,11.10
2022-11-12T06:16:22.459Z,12.43
2022-11-12T06:19:44.696Z,12.48
2022-11-12T06:23:06.662Z,12.00
2022-11-12T06:26:29.095Z,12.00
2022-11-12T06:29:49.858Z,12.73
2022-11-12T06:33:10.929Z,11.85
2022-11-12T06:36:34.850Z,10.18
2022-11-12T06:40:00.557Z,11.20
2022-11-12T06:43:21.866Z,10.48
2022-11-12T06:46:42.377Z,11.52
2022-11-12T06:50:03.275Z,10.95
2022-11-12T06:53:24.395Z,8.98
2022-11-12T06:56:44.800Z,10.77
2022-11-12T07:00:06.241Z,9.52
2022-11-12T07:03:26.618Z,9.73
2022-11-12T07:06:47.428Z,9.20
2022-11-12T07:10:09.241Z,10.27
2022-11-12T07:13:32.866Z,3.00
2022-11-12T07:16:53.453Z,13.05
2022-11-12T07:20:15.613Z,3.42
2022-11-12T07:23:37.213Z,11.40
2022-11-12T07:26:58.581Z,12.85
2022-11-12T07:30:19.803Z,12.80
2022-11-12T07:33:41.676Z,12.18
2022-11-12T07:37:03.187Z,13.13
2022-11-12T07:40:23.574Z,12.25
2022-11-12T07:43:46.007Z,12.27
2022-11-12T07:47:06.642Z,12.57
2022-11-12T07:50:27.478Z,13.95
2022-11-12T07:53:49.446Z,11.57
2022-11-12T07:57:10.172Z,11.98
2022-11-12T08:00:30.653Z,15.18
2022-11-12T08:03:51.516Z,14.13
2022-11-12T08:07:13.065Z,14.20
2022-11-12T08:10:35.132Z,17.05
2022-11-12T08:13:55.795Z,17.13
2022-11-12T08:17:16.613Z,23.50
2022-11-12T08:20:37.383Z,31.60
2022-11-12T08:23:58.282Z,34.30
2022-11-12T08:27:19.053Z,27.60
2022-11-12T08:30:39.792Z,29.42
2022-11-12T08:34:12.448Z,26.42
2022-11-12T08:37:36.734Z,24.08
2022-11-12T08:41:04.028Z,24.08
2022-11-12T08:44:24.432Z,23.80
2022-11-12T08:47:44.996Z,24.40
2022-11-12T08:51:16.438Z,22.95
2022-11-12T08:54:37.385Z,21.80
2022-11-12T08:58:06.776Z,19.13
2022-11-12T09:04:48.324Z,15.10
2022-11-12T09:08:14.637Z,17.92
2022-11-12T09:11:35.329Z,16.63
2022-11-12T09:15:09.649Z,17.65
2022-11-12T09:18:37.968Z,18.75
2022-11-12T09:22:02.028Z,18.27
2022-11-12T09:25:22.450Z,21.17
2022-11-12T09:28:43.336Z,21.20
2022-11-12T09:32:04.207Z,24.23
2022-11-12T09:35:24.989Z,20.85
2022-11-12T09:38:45.524Z,22.60
2022-11-12T09:42:08.423Z,21.38
2022-11-12T09:45:32.714Z,22.80
2022-11-12T09:49:08.268Z,27.02
2022-11-12T09:52:30.547Z,27.25
2022-11-12T09:55:51.232Z,28.00
2022-11-12T09:59:13.377Z,24.30
2022-11-12T10:02:47.572Z,20.35
2022-11-12T10:06:21.768Z,20.50
2022-11-12T10:09:48.247Z,20.83
2022-11-12T10:13:15.133Z,19.58
2022-11-12T10:16:55.906Z,21.60
2022-11-12T10:20:30.234Z,20.45
2022-11-12T10:23:56.323Z,14.10
2022-11-12T10:27:24.674Z,20.30
2022-11-12T10:30:46.275Z,18.60
2022-11-12T10:34:15.526Z,16.75
2022-11-12T10:37:56.887Z,14.63
2022-11-12T10:41:22.486Z,14.27
2022-11-12T10:44:43.669Z,15.52
2022-11-12T10:48:04.513Z,15.50
2022-11-12T10:51:31.997Z,14.82
2022-11-12T10:55:04.113Z,16.60
2022-11-12T10:58:25.455Z,16.48
2022-11-12T11:01:54.018Z,15.63
2022-11-12T11:05:33.777Z,16.15
2022-11-12T11:09:14.444Z,15.43
2022-11-12T11:12:35.742Z,13.63
2022-11-12T11:16:02.404Z,14.18
2022-11-12T11:19:23.490Z,13.02
2022-11-12T11:22:46.939Z,13.65
2022-11-12T11:26:31.315Z,15.45
2022-11-12T11:30:00.571Z,14.48
2022-11-12T11:33:24.194Z,15.55
2022-11-12T11:37:10.134Z,14.80
2022-11-12T11:40:37.306Z,16.25
2022-11-12T11:44:17.269Z,15.80
2022-11-12T11:48:02.269Z,15.90
2022-11-12T11:52:05.793Z,14.55
2022-11-12T11:55:54.416Z,17.27
2022-11-12T11:59:33.695Z,16.55
2022-11-12T12:03:24.042Z,16.00
2022-11-12T12:06:59.743Z,14.68
2022-11-12T12:15:02.030Z,20.88
2022-11-12T12:18:46.896Z,15.02
2022-11-12T12:22:17.770Z,15.55
2022-11-12T12:25:41.510Z,14.75
2022-11-12T12:29:31.624Z,14.52
2022-11-12T12:33:08.553Z,15.45
2022-11-12T12:36:36.778Z,13.43
2022-11-12T12:40:15.298Z,13.70
2022-11-12T12:44:01.501Z,15.40
2022-11-12T12:47:26.529Z,14.35
2022-11-12T12:50:49.041Z,15.43
2022-11-12T12:54:34.627Z,16.15
2022-11-12T12:58:00.986Z,15.77
2022-11-12T13:01:21.611Z,15.50
2022-11-12T13:04:56.938Z,15.40
2022-11-12T13:08:25.532Z,17.30
2022-11-12T13:12:06.346Z,18.73
2022-11-12T13:15:45.756Z,16.65
2022-11-12T13:19:07.823Z,16.52
2022-11-12T13:22:28.219Z,15.63
2022-11-12T13:25:48.874Z,16.83
2022-11-12T13:29:22.016Z,16.60
2022-11-12T13:32:48.719Z,19.70
2022-11-12T13:36:26.115Z,19.02
2022-11-12T13:39:46.738Z,20.75
2022-11-12T13:43:19.087Z,19.13
2022-11-12T13:46:39.914Z,19.27
2022-11-12T13:50:02.038Z,16.92
2022-11-12T13:53:26.570Z,18.15
2022-11-12T13:56:47.004Z,17.63
2022-11-12T14:00:26.957Z,17.13
2022-11-12T14:03:51.179Z,17.58
2022-11-12T14:07:46.007Z,18.98
2022-11-12T14:11:16.428Z,18.33
2022-11-12T14:15:00.901Z,17.42
2022-11-12T14:18:41.730Z,17.13
2022-11-12T14:22:14.143Z,17.92
2022-11-12T14:25:34.646Z,16.83
2022-11-12T14:28:59.474Z,17.55
2022-11-12T14:32:20.051Z,19.30
2022-11-12T14:35:40.868Z,18.33
2022-11-12T14:39:01.515Z,18.13
2022-11-12T14:42:22.100Z,20.15
2022-11-12T14:45:48.862Z,19.77
2022-11-12T14:49:34.147Z,19.30
2022-11-12T14:53:09.622Z,18.20
2022-11-12T14:56:39.125Z,22.67
2022-11-12T14:59:59.658Z,21.70
2022-11-12T15:03:26.583Z,24.92
2022-11-12T15:06:56.428Z,24.00
2022-11-12T15:14:01.124Z,22.45
2022-11-12T15:17:34.689Z,24.40
2022-11-12T15:21:10.919Z,24.02
2022-11-12T15:24:34.619Z,26.88
2022-11-12T15:27:55.364Z,26.55
2022-11-12T15:31:20.200Z,26.48
2022-11-12T15:34:41.909Z,23.70
2022-11-12T15:38:06.967Z,26.17
2022-11-12T15:41:34.004Z,26.80
2022-11-12T15:45:03.489Z,27.70
2022-11-12T15:55:05.156Z,28.13
2022-11-12T15:58:33.403Z,28.25
2022-11-12T16:01:54.244Z,26.38
2022-11-12T16:05:17.231Z,27.88
2022-11-12T16:08:37.794Z,32.30
2022-11-12T16:11:59.095Z,30.95
2022-11-12T16:15:25.657Z,33.83
2022-11-12T16:18:46.496Z,33.17
2022-11-12T16:22:12.696Z,38.55
2022-11-12T16:25:36.403Z,33.88
2022-11-12T16:28:57.803Z,34.20
2022-11-12T16:32:18.019Z,36.55
2022-11-12T16:35:39.124Z,36.72
2022-11-12T16:38:59.572Z,33.80
2022-11-12T16:42:19.899Z,32.10
2022-11-12T16:45:42.820Z,33.45
2022-11-12T16:49:03.523Z,34.03
2022-11-12T16:52:24.023Z,35.72
2022-11-12T16:55:44.716Z,34.03
2022-11-12T16:59:05.779Z,33.90
2022-11-12T17:02:26.508Z,35.83
2022-11-12T17:05:52.750Z,38.50
2022-11-12T17:09:16.742Z,36.53
2022-11-12T17:12:37.594Z,37.13
2022-11-12T17:15:58.819Z,37.65
2022-11-12T17:19:19.365Z,37.83
2022-11-12T17:22:40.137Z,37.45
2022-11-12T17:26:02.212Z,38.17
2022-11-12T17:29:22.568Z,35.38
2022-11-12T17:32:42.890Z,34.85
2022-11-12T17:36:05.043Z,34.42
2022-11-12T17:39:25.845Z,32.35
2022-11-12T17:42:46.389Z,33.17
2022-11-12T17:46:08.852Z,29.42
2022-11-12T17:49:29.369Z,31.25
2022-11-12T17:52:50.002Z,31.42
2022-11-12T17:56:13.017Z,30.27
2022-11-12T17:59:33.816Z,31.35
2022-11-12T18:02:57.761Z,27.65
2022-11-12T18:06:25.917Z,30.40
2022-11-12T18:09:46.360Z,30.75
2022-11-12T18:13:06.719Z,31.00
2022-11-12T18:16:29.266Z,31.60
2022-11-12T18:19:49.928Z,30.63
2022-11-12T18:23:10.546Z,29.15
2022-11-12T18:26:31.110Z,29.52
2022-11-12T18:29:51.452Z,28.67
2022-11-12T18:33:12.294Z,30.10
2022-11-12T18:36:33.125Z,31.27
2022-11-12T18:39:53.502Z,32.88
2022-11-12T18:43:15.473Z,30.95
2022-11-12T18:46:36.115Z,29.10
2022-11-12T18:49:56.752Z,31.55
2022-11-12T18:53:17.247Z,32.30
2022-11-12T18:56:38.337Z,30.77
2022-11-12T18:59:59.221Z,32.50
2022-11-12T19:03:20.083Z,34.90
2022-11-12T19:06:40.800Z,34.38
2022-11-12T19:10:14.703Z,32.72
2022-11-12T19:13:36.326Z,33.35
2022-11-12T19:16:57.441Z,32.13
2022-11-12T19:20:17.594Z,32.67
2022-11-12T19:23:38.854Z,31.55
2022-11-12T19:26:59.308Z,33.45
2022-11-12T19:30:19.838Z,32.72
2022-11-12T19:33:40.249Z,30.23
2022-11-12T19:40:42.524Z,29.25
2022-11-12T19:44:02.836Z,30.08
2022-11-12T19:47:23.365Z,30.00
2022-11-12T19:50:43.790Z,31.50
2022-11-12T19:54:04.833Z,29.42
2022-11-12T19:57:27.156Z,30.42
2022-11-12T20:00:47.777Z,30.92
2022-11-12T20:04:08.229Z,31.83
2022-11-12T20:07:28.919Z,30.08
2022-11-12T20:10:49.573Z,32.70
2022-11-12T20:14:10.553Z,32.03
2022-11-12T20:17:33.232Z,30.65
2022-11-12T20:20:56.275Z,30.48
2022-11-12T20:24:16.792Z,28.63
2022-11-12T20:27:37.430Z,29.20
2022-11-12T20:31:09.894Z,28.67
2022-11-12T20:34:30.508Z,29.52
2022-11-12T20:37:53.298Z,30.92
2022-11-12T20:41:16.870Z,29.75
2022-11-12T20:44:37.173Z,25.55
2022-11-12T20:47:57.864Z,30.55
2022-11-12T20:51:25.346Z,27.15
2022-11-12T20:54:46.308Z,26.70
2022-11-12T20:58:07.064Z,28.60
2022-11-12T21:01:29.378Z,26.58
2022-11-12T21:04:49.745Z,26.75
2022-11-12T21:08:09.982Z,25.30
2022-11-12T21:11:30.580Z,26.70
2022-11-12T21:14:51.493Z,27.05
2022-11-12T21:18:12.168Z,25.48
2022-11-12T21:21:32.506Z,24.38
2022-11-12T21:24:53.019Z,25.58
2022-11-12T21:28:13.760Z,25.92
2022-11-12T21:31:34.140Z,24.02
2022-11-12T21:34:55.835Z,25.98
2022-11-12T21:38:16.288Z,27.15
2022-11-12T21:41:36.745Z,24.25
2022-11-12T21:44:57.237Z,25.95
2022-11-12T21:48:17.585Z,26.58
2022-11-12T21:51:38.086Z,24.95
2022-11-12T21:54:58.605Z,26.98
2022-11-12T21:58:19.250Z,26.33
2022-11-12T22:01:40.785Z,26.25
2022-11-12T22:05:01.062Z,27.35
2022-11-12T22:08:21.479Z,28.30
2022-11-12T22:11:42.102Z,26.63
2022-11-12T22:15:02.622Z,25.85
2022-11-12T22:18:23.406Z,27.08
2022-11-12T22:21:43.871Z,22.88
2022-11-12T22:25:07.199Z,25.55
2022-11-12T22:28:27.976Z,24.92
2022-11-12T22:31:48.442Z,24.88
2022-11-12T22:35:09.589Z,26.50
2022-11-12T22:38:37.995Z,26.92
2022-11-12T22:41:58.541Z,28.95
2022-11-12T22:45:18.917Z,31.25
2022-11-12T22:48:40.066Z,30.17
2022-11-12T22:52:00.667Z,29.38
2022-11-12T22:55:21.589Z,30.23
2022-11-12T22:58:44.631Z,28.77
2022-11-12T23:02:07.970Z,28.75
2022-11-12T23:05:28.405Z,33.03
2022-11-12T23:08:49.263Z,30.80
2022-11-12T23:12:09.968Z,33.03
2022-11-12T23:15:31.092Z,30.02
2022-11-12T23:18:52.963Z,29.58
2022-11-12T23:22:13.497Z,30.63
2022-11-12T23:25:34.668Z,30.23
2022-11-12T23:28:55.356Z,30.45
2022-11-12T23:32:15.802Z,29.30
2022-11-12T23:35:36.336Z,29.77
2022-11-12T23:38:58.032Z,27.50
2022-11-12T23:42:18.447Z,22.65
2022-11-12T23:45:38.820Z,22.90
2022-11-12T23:48:59.610Z,20.88
2022-11-12T23:52:19.909Z,23.80
2022-11-12T23:55:44.055Z,23.30
2022-11-12T23:59:04.333Z,24.00
